Time;durP1;ratioP1;P1;durP2;ratioP2;P2;SDS_P1;SDS_P2;PMS_P1;PMS_P2;Temp;Humidity;BMP_temperature;BMP_pressure;BME280_temperature;BME280_humidity;BME280_pressure;Samples;Min_cycle;Max_cycle;Signal;HPM_P1;HPM_P2
2022/01/28 00:00:17;;;;;;;56.03;34.35;;;;;;;-8.27;100.00;93567.31;5051221;28;20053;-80
2022/01/28 00:02:57;;;;;;;51.78;31.10;;;;;;;-8.12;100.00;93560.66;5051463;28;20044;-80
2022/01/28 00:05:25;;;;;;;53.25;32.53;;;;;;;-8.03;100.00;93541.06;5036428;28;20112;-80
2022/01/28 00:07:55;;;;;;;70.45;40.03;;;;;;;-7.70;100.00;93568.22;5031331;28;20049;-80
2022/01/28 00:10:23;;;;;;;36.78;20.85;;;;;;;-7.63;100.00;93568.66;5031050;28;20087;-80
2022/01/28 00:15:38;;;;;;;29.33;16.95;;;;;;;-7.45;100.00;93576.72;5030510;28;20056;-80
2022/01/28 00:21:09;;;;;;;36.08;21.58;;;;;;;-7.39;100.00;93536.47;5030756;28;20057;-80
2022/01/28 00:40:19;;;;;;;65.45;36.60;;;;;;;-7.87;100.00;93540.97;5010634;28;20064;-79
2022/01/28 00:42:45;;;;;;;61.00;35.55;;;;;;;-7.86;100.00;93557.53;5030836;28;20049;-80
2022/01/28 00:45:12;;;;;;;62.10;35.38;;;;;;;-7.88;100.00;93562.59;5030231;28;20103;-79
2022/01/28 00:47:39;;;;;;;80.20;38.65;;;;;;;-7.95;100.00;93559.69;5030398;28;20046;-78
2022/01/28 00:50:07;;;;;;;69.05;34.85;;;;;;;-7.84;100.00;93553.25;5030660;28;20494;-79
2022/01/28 00:52:34;;;;;;;83.25;40.35;;;;;;;-7.79;100.00;93551.28;5030332;28;20053;-78
2022/01/28 00:55:01;;;;;;;66.70;38.50;;;;;;;-7.98;100.00;93554.88;5030565;28;20416;-79
2022/01/28 00:57:29;;;;;;;77.10;40.35;;;;;;;-8.18;100.00;93538.56;5030416;28;20359;-78
2022/01/28 00:59:56;;;;;;;65.43;34.58;;;;;;;-8.17;100.00;93552.63;5030428;28;20049;-79
2022/01/28 01:02:23;;;;;;;61.70;33.72;;;;;;;-8.23;100.00;93533.03;5030289;28;20053;-78
2022/01/28 01:04:50;;;;;;;56.08;36.97;;;;;;;-8.11;100.00;93544.78;5030165;28;20041;-78
2022/01/28 01:07:17;;;;;;;54.35;33.13;;;;;;;-8.01;100.00;93524.34;5047767;28;20110;-78
2022/01/28 01:09:45;;;;;;;57.05;33.15;;;;;;;-7.93;100.00;93522.19;5057493;28;20048;-78
2022/01/28 01:12:13;;;;;;;61.72;32.30;;;;;;;-7.80;100.00;93517.28;5069507;28;20052;-79
2022/01/28 01:14:42;;;;;;;67.35;31.23;;;;;;;-7.73;100.00;93511.03;5069603;28;20049;-79
2022/01/28 01:17:20;;;;;;;55.47;28.58;;;;;;;-7.60;100.00;93511.09;5069435;28;20049;-79
2022/01/28 01:19:51;;;;;;;53.53;27.38;;;;;;;-7.55;100.00;93489.16;5069487;28;20048;-79
2022/01/28 01:22:19;;;;;;;48.53;26.48;;;;;;;-7.32;100.00;93509.41;5069824;28;20090;-79
2022/01/28 01:24:52;;;;;;;40.53;22.50;;;;;;;-7.30;100.00;93502.66;5069925;28;20094;-78
2022/01/28 01:27:20;;;;;;;39.10;19.88;;;;;;;-7.23;100.00;93490.56;5069762;28;20045;-79
2022/01/28 01:29:48;;;;;;;41.45;20.02;;;;;;;-7.15;100.00;93485.09;5069833;28;20044;-79
2022/01/28 01:32:17;;;;;;;29.55;16.23;;;;;;;-7.13;100.00;93489.09;5069438;28;20066;-78
2022/01/28 01:34:44;;;;;;;33.20;17.60;;;;;;;-7.15;100.00;93470.94;5069372;28;20052;-79
2022/01/28 01:37:12;;;;;;;29.77;15.52;;;;;;;-6.89;100.00;93477.69;5068766;28;20041;-79
2022/01/28 01:39:41;;;;;;;29.10;16.05;;;;;;;-6.80;100.00;93478.78;5069641;28;20052;-78
2022/01/28 01:42:16;;;;;;;29.20;15.57;;;;;;;-6.72;100.00;93476.59;5069287;28;20054;-78
2022/01/28 01:53:03;;;;;;;35.23;17.60;;;;;;;-6.68;100.00;93460.53;5069383;28;20071;-79
2022/01/28 01:55:31;;;;;;;36.05;18.10;;;;;;;-6.76;100.00;93466.00;5068946;28;20056;-79
2022/01/28 01:57:58;;;;;;;39.50;20.33;;;;;;;-7.03;100.00;93468.56;5069114;28;20041;-79
2022/01/28 02:00:25;;;;;;;36.78;20.98;;;;;;;-7.37;100.00;93451.50;5069336;28;20049;-80
2022/01/28 02:02:53;;;;;;;42.33;21.98;;;;;;;-7.49;100.00;93429.81;5068968;28;20132;-79
2022/01/28 02:05:20;;;;;;;35.75;19.00;;;;;;;-7.31;100.00;93461.09;5055099;28;20053;-79
2022/01/28 02:07:47;;;;;;;46.90;25.08;;;;;;;-7.62;100.00;93467.16;5049279;28;20052;-79
2022/01/28 02:10:14;;;;;;;82.57;39.85;;;;;;;-8.73;100.00;93473.59;5049152;28;20098;-79
2022/01/28 02:12:48;;;;;;;104.85;50.00;;;;;;;-8.99;100.00;93459.22;5048163;28;20045;-78
2022/01/28 02:15:16;;;;;;;128.67;61.73;;;;;;;-9.18;100.00;93437.03;5048445;28;20485;-79
2022/01/28 02:17:44;;;;;;;119.80;55.45;;;;;;;-9.24;100.00;93452.31;5047953;28;20548;-78
2022/01/28 02:20:19;;;;;;;119.32;56.78;;;;;;;-9.20;100.00;93445.47;5048341;28;20135;-78
2022/01/28 02:22:46;;;;;;;134.50;63.13;;;;;;;-9.62;100.00;93447.72;5048423;28;20511;-78
2022/01/28 02:25:24;;;;;;;154.65;68.40;;;;;;;-9.76;100.00;93424.41;5048141;28;20041;-78
2022/01/28 02:27:51;;;;;;;161.32;78.45;;;;;;;-9.79;100.00;93422.06;5046077;28;20041;-78
2022/01/28 02:30:18;;;;;;;182.77;83.10;;;;;;;-9.77;100.00;93429.47;5047970;28;20051;-78
2022/01/28 02:32:49;;;;;;;177.45;81.50;;;;;;;-9.86;100.00;93423.28;5048164;28;20052;-78
2022/01/28 02:35:17;;;;;;;168.50;82.00;;;;;;;-9.94;100.00;93419.53;5048490;28;20041;-78
2022/01/28 02:37:45;;;;;;;177.02;76.85;;;;;;;-9.91;100.00;93426.00;5048485;28;20052;-78
2022/01/28 02:40:12;;;;;;;168.63;82.00;;;;;;;-10.15;100.00;93421.44;5048117;28;20066;-78
2022/01/28 02:42:51;;;;;;;173.48;79.93;;;;;;;-10.24;100.00;93417.75;5048000;28;20516;-78
2022/01/28 02:45:26;;;;;;;166.63;78.53;;;;;;;-10.31;100.00;93431.38;5047114;28;20041;-79
2022/01/28 02:47:58;;;;;;;181.35;81.93;;;;;;;-10.23;100.00;93431.00;5046259;28;20049;-79
2022/01/28 02:50:29;;;;;;;209.73;86.57;;;;;;;-10.24;100.00;93409.53;5051547;28;20435;-79
2022/01/28 02:53:05;;;;;;;179.98;83.63;;;;;;;-10.20;100.00;93411.75;5052157;28;20041;-80
2022/01/28 02:55:37;;;;;;;202.52;84.18;;;;;;;-9.98;100.00;93417.28;5050247;28;20045;-80
2022/01/28 02:58:16;;;;;;;201.43;87.47;;;;;;;-10.17;100.00;93365.25;5051732;28;20040;-80
2022/01/28 03:00:46;;;;;;;195.18;86.70;;;;;;;-9.89;100.00;93419.28;5051818;28;20056;-80
2022/01/28 03:03:13;;;;;;;200.70;83.65;;;;;;;-9.75;100.00;93425.19;5051607;28;20128;-80
2022/01/28 03:05:41;;;;;;;201.73;83.88;;;;;;;-10.15;100.00;93400.78;5051674;28;20792;-80
2022/01/28 03:08:08;;;;;;;223.25;82.63;;;;;;;-10.11;100.00;93390.59;5049557;28;20481;-80
2022/01/28 03:13:33;;;;;;;208.18;86.32;;;;;;;-9.92;100.00;93411.97;5025018;28;20049;-80
2022/01/28 03:16:12;;;;;;;206.50;82.30;;;;;;;-9.68;100.00;93414.84;5051156;28;20048;-79
2022/01/28 03:18:48;;;;;;;177.30;79.03;;;;;;;-10.15;100.00;93411.50;5032019;28;20045;-79
2022/01/28 03:21:22;;;;;;;191.20;80.07;;;;;;;-10.35;100.00;93397.63;5031986;28;20049;-79
2022/01/28 03:23:49;;;;;;;189.98;79.45;;;;;;;-10.31;100.00;93410.69;5031957;28;20079;-80
2022/01/28 03:26:16;;;;;;;162.00;74.68;;;;;;;-10.45;100.00;93384.13;5032163;28;20045;-79
2022/01/28 03:28:43;;;;;;;172.82;73.88;;;;;;;-10.25;100.00;93403.75;5032047;28;20049;-78
2022/01/28 03:31:10;;;;;;;165.25;72.30;;;;;;;-10.07;100.00;93378.81;5031674;28;20124;-79
2022/01/28 03:33:37;;;;;;;178.15;72.60;;;;;;;-9.60;100.00;93397.03;5031866;28;20045;-79
2022/01/28 03:36:07;;;;;;;168.05;70.70;;;;;;;-9.49;100.00;93396.47;5031947;28;20050;-80
2022/01/28 03:38:35;;;;;;;178.95;74.20;;;;;;;-9.70;100.00;93358.63;5031656;28;20107;-81
2022/01/28 03:41:02;;;;;;;164.00;71.50;;;;;;;-9.28;100.00;93399.44;5031291;28;20513;-80
2022/01/28 03:43:29;;;;;;;166.70;72.05;;;;;;;-9.36;100.00;93376.66;5031086;28;20141;-80
2022/01/28 03:45:56;;;;;;;152.25;67.55;;;;;;;-9.22;100.00;93393.31;5031543;28;20054;-80
2022/01/28 03:48:23;;;;;;;171.05;73.13;;;;;;;-9.39;100.00;93385.09;5030962;28;20503;-80
2022/01/28 03:50:51;;;;;;;150.90;65.57;;;;;;;-9.20;100.00;93381.59;5030761;28;20056;-81
2022/01/28 03:53:18;;;;;;;162.90;67.70;;;;;;;-9.17;100.00;93386.38;5029786;28;20053;-81
2022/01/28 03:55:47;;;;;;;161.40;64.43;;;;;;;-9.47;100.00;93349.91;5030945;28;20046;-79
2022/01/28 03:58:14;;;;;;;145.98;61.92;;;;;;;-9.21;100.00;93375.03;5031326;28;20591;-79
2022/01/28 04:00:41;;;;;;;160.15;67.95;;;;;;;-9.24;100.00;93364.41;5030563;28;20084;-79
2022/01/28 04:03:11;;;;;;;164.00;67.60;;;;;;;-9.13;100.00;93362.13;5031410;28;20127;-79
2022/01/28 04:11:29;;;;;;;;;;;;;;;-8.90;100.00;93362.50;5031530;28;20531;-79
2022/01/28 04:13:58;;;;;;;149.80;62.90;;;;;;;-9.02;100.00;93359.03;5030884;28;19971;-79
2022/01/28 04:17:18;;;;;;;153.35;67.05;;;;;;;-9.04;100.00;93363.28;5030837;28;20497;-79
2022/01/28 04:19:19;;;;;;;144.35;59.78;;;;;;;-8.99;100.00;93369.63;5030566;28;20049;-80
2022/01/28 04:21:47;;;;;;;158.85;64.25;;;;;;;-9.09;100.00;93350.34;5030721;28;20099;-79
2022/01/28 04:24:14;;;;;;;185.10;88.55;;;;;;;-9.07;100.00;93363.47;5030922;28;20099;-81
2022/01/28 04:26:42;;;;;;;198.93;87.57;;;;;;;-9.03;100.00;93380.63;5030541;28;20049;-79
2022/01/28 04:29:11;;;;;;;184.18;77.07;;;;;;;-9.43;100.00;93385.34;5030386;28;20056;-80
2022/01/28 04:31:41;;;;;;;167.13;71.90;;;;;;;-9.47;100.00;93382.25;5030847;28;20056;-80
2022/01/28 04:34:08;;;;;;;171.50;70.57;;;;;;;-9.26;100.00;93381.94;5030483;28;20045;-80
2022/01/28 04:36:42;;;;;;;156.93;72.30;;;;;;;-9.31;100.00;93376.41;5030816;28;20045;-80
2022/01/28 04:39:15;;;;;;;190.13;86.65;;;;;;;-9.33;100.00;93381.47;5030787;28;20469;-80
2022/01/28 04:41:54;;;;;;;154.02;68.45;;;;;;;-9.38;100.00;93370.97;5031192;28;20045;-79
2022/01/28 04:44:28;;;;;;;140.98;61.63;;;;;;;-9.59;100.00;93348.09;5030919;28;20085;-79
2022/01/28 04:47:01;;;;;;;144.23;68.72;;;;;;;-9.59;100.00;93377.94;5030571;28;20053;-80
2022/01/28 04:49:39;;;;;;;132.93;60.45;;;;;;;-9.76;100.00;93388.78;5030374;28;20057;-79
2022/01/28 04:52:35;;;;;;;83.85;41.80;;;;;;;-10.18;100.00;93391.00;5030555;28;20049;-79
2022/01/28 04:55:09;;;;;;;82.87;39.60;;;;;;;-10.18;100.00;93384.34;5030255;28;20796;-80
2022/01/28 04:57:52;;;;;;;80.45;40.50;;;;;;;-9.96;100.00;93388.97;5030472;28;20050;-79
2022/01/28 05:00:27;;;;;;;79.80;39.13;;;;;;;-9.76;100.00;93394.59;5024848;28;20065;-80
2022/01/28 05:03:20;;;;;;;93.20;49.67;;;;;;;-9.82;100.00;93384.97;5028554;28;20449;-80
2022/01/28 05:09:00;;;;;;;131.57;59.17;;;;;;;-10.56;100.00;93399.56;5001446;28;20049;-79
2022/01/28 05:17:10;;;;;;;142.57;67.25;;;;;;;-11.33;100.00;93361.13;5007995;28;20288;-78
2022/01/28 05:27:51;;;;;;;158.30;76.95;;;;;;;-11.15;100.00;93386.69;5009228;28;20142;-79
2022/01/28 05:30:19;;;;;;;172.88;90.07;;;;;;;-11.23;100.00;93385.47;5009750;28;20415;-79
2022/01/28 05:32:46;;;;;;;146.85;74.50;;;;;;;-11.34;100.00;93386.78;5009650;28;20045;-78
2022/01/28 05:35:12;;;;;;;162.98;75.30;;;;;;;-11.80;100.00;93374.91;5009343;28;20053;-78
2022/01/28 05:37:39;;;;;;;155.55;75.82;;;;;;;-11.63;100.00;93403.03;5009746;28;20050;-79
2022/01/28 05:40:07;;;;;;;162.98;80.00;;;;;;;-11.57;100.00;93378.75;5009405;28;20054;-78
2022/01/28 05:42:34;;;;;;;207.55;100.05;;;;;;;-11.37;100.00;93401.00;5009718;28;20050;-78
2022/01/28 05:45:01;;;;;;;171.82;80.65;;;;;;;-11.07;100.00;93403.69;5009658;28;20053;-79
2022/01/28 05:47:32;;;;;;;145.07;72.15;;;;;;;-11.69;100.00;93302.50;5008838;28;20054;-79
2022/01/28 05:50:00;;;;;;;142.25;69.75;;;;;;;-11.17;100.00;93405.81;5009458;28;20140;-79
2022/01/28 05:52:28;;;;;;;166.52;77.28;;;;;;;-10.96;100.00;93398.22;5009379;28;20041;-78
2022/01/28 05:54:55;;;;;;;155.15;73.43;;;;;;;-10.74;100.00;93400.41;5009439;28;20536;-79
2022/01/28 05:57:21;;;;;;;150.82;74.18;;;;;;;-10.43;100.00;93402.25;5009598;28;20049;-78
2022/01/28 05:59:48;;;;;;;150.15;72.43;;;;;;;-10.16;100.00;93397.47;5009357;28;20822;-78
2022/01/28 06:02:16;;;;;;;164.25;76.43;;;;;;;-10.07;100.00;93383.78;5009513;28;20053;-78
2022/01/28 06:04:45;;;;;;;145.93;73.25;;;;;;;-9.92;100.00;93404.53;5009373;28;20480;-79
2022/01/28 06:07:12;;;;;;;183.25;85.07;;;;;;;-9.88;100.00;93413.44;5009632;28;20054;-79
2022/01/28 06:09:38;;;;;;;171.40;80.28;;;;;;;-10.24;100.00;93397.09;5009318;28;20046;-79
2022/01/28 06:12:06;;;;;;;156.13;73.68;;;;;;;-10.09;100.00;93391.31;5009064;28;20050;-79
2022/01/28 06:14:33;;;;;;;144.95;67.53;;;;;;;-9.83;100.00;93418.97;5009384;28;20046;-79
2022/01/28 06:17:00;;;;;;;143.95;72.32;;;;;;;-9.82;100.00;93415.59;5009514;28;20042;-79
2022/01/28 06:19:27;;;;;;;135.35;69.13;;;;;;;-9.74;100.00;93427.59;5009157;28;20046;-79
2022/01/28 06:21:55;;;;;;;160.32;77.85;;;;;;;-9.66;100.00;93430.50;5009512;28;20085;-78
2022/01/28 06:24:22;;;;;;;147.80;72.20;;;;;;;-9.57;100.00;93434.19;5013172;28;20569;-78
2022/01/28 06:26:48;;;;;;;172.35;88.03;;;;;;;-9.59;100.00;93420.22;5013207;28;20049;-78
2022/01/28 06:29:15;;;;;;;196.05;99.35;;;;;;;-9.66;100.00;93440.44;5013518;28;20061;-79
2022/01/28 06:31:43;;;;;;;284.55;128.23;;;;;;;-9.89;100.00;93424.25;5013145;28;20517;-78
2022/01/28 06:34:10;;;;;;;163.90;84.25;;;;;;;-9.71;100.00;93437.41;5013143;28;20042;-78
2022/01/28 06:36:37;;;;;;;173.95;83.70;;;;;;;-9.51;100.00;93439.69;5013250;28;20066;-78
2022/01/28 06:39:05;;;;;;;164.30;81.13;;;;;;;-9.38;100.00;93443.13;5013233;28;20418;-79
2022/01/28 06:41:32;;;;;;;165.77;73.82;;;;;;;-9.17;100.00;93435.38;5017454;28;20554;-78
2022/01/28 06:43:59;;;;;;;159.25;79.97;;;;;;;-9.42;100.00;93380.31;5012578;28;20054;-79
2022/01/28 06:46:26;;;;;;;177.88;87.75;;;;;;;-9.01;100.00;93440.28;5012852;28;20050;-79
2022/01/28 06:48:53;;;;;;;168.30;80.50;;;;;;;-8.94;100.00;93446.50;5012310;28;20077;-78
2022/01/28 06:51:20;;;;;;;211.50;94.85;;;;;;;-8.91;100.00;93446.34;5012750;28;20120;-78
2022/01/28 06:53:47;;;;;;;177.23;82.22;;;;;;;-8.83;100.00;93443.44;5012523;28;20042;-78
2022/01/28 06:56:15;;;;;;;174.32;79.68;;;;;;;-8.66;100.00;93429.22;5012461;28;20054;-79
2022/01/28 06:58:42;;;;;;;142.02;68.63;;;;;;;-8.46;100.00;93438.00;5012478;28;20053;-79
2022/01/28 07:01:09;;;;;;;229.77;97.45;;;;;;;-8.43;100.00;93425.34;5012425;28;20394;-78
2022/01/28 07:03:36;;;;;;;202.70;85.15;;;;;;;-8.07;100.00;93451.50;5012498;28;20132;-79
2022/01/28 07:06:03;;;;;;;174.68;80.10;;;;;;;-8.08;100.00;93415.00;5012510;28;20049;-78
2022/01/28 07:08:30;;;;;;;158.43;73.45;;;;;;;-7.82;100.00;93459.22;5011852;28;20050;-78
2022/01/28 07:10:57;;;;;;;139.93;67.57;;;;;;;-7.72;100.00;93456.97;5012396;28;20413;-79
2022/01/28 07:13:25;;;;;;;151.27;73.13;;;;;;;-7.53;100.00;93459.94;5012113;28;20100;-78
2022/01/28 07:15:52;;;;;;;153.70;69.70;;;;;;;-7.46;100.00;93462.06;5012261;28;20417;-79
2022/01/28 07:18:20;;;;;;;214.93;91.07;;;;;;;-8.02;100.00;93440.47;5012438;28;20046;-79
2022/01/28 07:20:47;;;;;;;368.20;144.30;;;;;;;-8.51;100.00;93435.78;5012402;28;20053;-78
2022/01/28 07:23:14;;;;;;;415.17;171.23;;;;;;;-8.48;100.00;93452.25;5012241;28;20058;-78
2022/01/28 07:25:41;;;;;;;362.20;147.45;;;;;;;-8.56;100.00;93451.91;5012468;28;20042;-79
2022/01/28 07:28:08;;;;;;;387.48;165.35;;;;;;;-8.56;100.00;93456.88;5012358;28;20054;-79
2022/01/28 07:30:36;;;;;;;249.70;106.65;;;;;;;-8.35;100.00;93450.63;5012397;28;20097;-79
2022/01/28 07:33:06;;;;;;;277.48;120.22;;;;;;;-8.56;100.00;93402.91;5011809;28;20085;-78
2022/01/28 07:35:33;;;;;;;249.23;107.95;;;;;;;-8.07;100.00;93463.16;5020439;28;20060;-79
2022/01/28 07:38:00;;;;;;;283.17;123.93;;;;;;;-7.75;100.00;93474.59;5029909;28;20046;-79
2022/01/28 07:40:27;;;;;;;203.98;97.70;;;;;;;-7.93;100.00;93444.88;5030943;28;20531;-78
2022/01/28 07:42:53;;;;;;;280.90;123.82;;;;;;;-7.43;100.00;93480.13;5031103;28;20041;-79
2022/01/28 07:45:20;;;;;;;213.93;98.78;;;;;;;-7.31;100.00;93483.56;5031371;28;20048;-79
2022/01/28 07:47:49;;;;;;;176.27;88.15;;;;;;;-7.09;100.00;93483.94;5030395;28;20049;-79
2022/01/28 07:50:16;;;;;;;172.65;89.93;;;;;;;-7.02;100.00;93480.97;5030744;28;20068;-78
2022/01/28 07:52:44;;;;;;;146.80;73.13;;;;;;;-7.15;100.00;93465.13;5031609;28;20049;-79
2022/01/28 07:55:12;;;;;;;170.13;75.88;;;;;;;-6.75;100.00;93500.06;5030977;28;20056;-78
2022/01/28 07:57:40;;;;;;;145.07;74.75;;;;;;;-6.66;100.00;93510.41;5024270;28;20053;-78
2022/01/28 08:00:09;;;;;;;135.13;68.70;;;;;;;-6.80;100.00;93501.28;5016178;28;20119;-79
2022/01/28 08:02:36;;;;;;;119.15;61.38;;;;;;;-6.36;100.00;93502.63;5024065;28;20104;-78
2022/01/28 08:05:04;;;;;;;117.18;58.22;;;;;;;-6.09;100.00;93505.91;5031286;28;20049;-79
2022/01/28 08:07:32;;;;;;;88.95;49.08;;;;;;;-5.94;100.00;93509.06;5030924;28;20448;-78
2022/01/28 08:09:58;;;;;;;94.43;48.70;;;;;;;-5.93;100.00;93510.69;5030862;28;20052;-78
2022/01/28 08:12:25;;;;;;;96.85;50.38;;;;;;;-5.74;100.00;93519.47;5030771;28;20045;-78
2022/01/28 08:14:52;;;;;;;103.40;50.85;;;;;;;-5.94;100.00;93474.84;5030614;28;20048;-78
2022/01/28 08:17:19;;;;;;;102.30;52.88;;;;;;;-5.44;100.00;93506.56;5030868;28;20054;-78
2022/01/28 08:19:46;;;;;;;146.13;78.68;;;;;;;-5.20;100.00;93495.75;5031084;28;20060;-78
2022/01/28 08:22:14;;;;;;;95.03;50.83;;;;;;;-4.96;100.00;93505.78;5030857;28;20049;-78
2022/01/28 08:24:41;;;;;;;75.43;40.47;;;;;;;-5.15;100.00;93492.91;5031114;28;20053;-77
2022/01/28 08:27:08;;;;;;;82.50;39.33;;;;;;;-5.15;100.00;93498.75;5030617;28;20091;-77
2022/01/28 08:29:34;;;;;;;86.63;43.92;;;;;;;-4.92;100.00;93491.31;5030743;28;20528;-77
2022/01/28 08:32:01;;;;;;;74.50;40.78;;;;;;;-4.93;100.00;93503.94;5030644;28;20559;-77
2022/01/28 08:34:28;;;;;;;88.72;46.42;;;;;;;-4.92;100.00;93498.06;5030733;28;20069;-77
2022/01/28 08:36:55;;;;;;;149.27;68.72;;;;;;;-4.58;100.00;93493.91;5030417;28;20049;-77
2022/01/28 08:39:24;;;;;;;146.30;66.95;;;;;;;-4.32;100.00;93487.91;5030206;28;20059;-78
2022/01/28 08:41:51;;;;;;;158.93;83.38;;;;;;;-4.04;100.00;93481.69;5029866;28;20049;-78
2022/01/28 08:44:18;;;;;;;115.75;55.83;;;;;;;-3.71;100.00;93479.25;5030312;28;20045;-77
2022/01/28 08:46:45;;;;;;;106.97;52.90;;;;;;;-3.58;100.00;93454.03;5030516;28;20072;-78
2022/01/28 08:49:12;;;;;;;97.07;45.83;;;;;;;-3.36;100.00;93474.97;5030167;28;20053;-78
2022/01/28 08:51:38;;;;;;;79.82;41.33;;;;;;;-3.13;100.00;93489.97;5029745;28;20057;-78
2022/01/28 08:54:05;;;;;;;88.70;35.00;;;;;;;-3.07;100.00;93488.72;5029777;28;20099;-78
2022/01/28 08:56:34;;;;;;;94.70;36.22;;;;;;;-3.13;100.00;93449.78;5029232;28;20050;-78
2022/01/28 08:59:01;;;;;;;82.00;34.90;;;;;;;-2.82;100.00;93478.31;5029954;28;20049;-78
2022/01/28 09:01:29;;;;;;;87.25;33.25;;;;;;;-2.70;100.00;93483.28;5029695;28;20057;-78
2022/01/28 09:03:56;;;;;;;97.68;36.13;;;;;;;-2.77;100.00;93480.50;5029946;28;20075;-78
2022/01/28 09:06:23;;;;;;;115.22;41.85;;;;;;;-2.72;100.00;93480.13;5030071;28;20461;-78
2022/01/28 09:08:53;;;;;;;102.60;37.47;;;;;;;-2.80;100.00;93478.22;5029638;28;20045;-78
2022/01/28 09:11:45;;;;;;;124.57;43.90;;;;;;;-3.37;100.00;93481.69;5029556;28;20056;-78
2022/01/28 09:14:13;;;;;;;124.28;52.00;;;;;;;-3.65;100.00;93457.91;5029843;28;20051;-78
2022/01/28 09:16:41;;;;;;;127.72;58.50;;;;;;;-3.50;100.00;93474.34;5029780;28;20049;-78
2022/01/28 09:19:08;;;;;;;131.15;60.10;;;;;;;-3.53;100.00;93472.03;5029687;28;20211;-78
2022/01/28 09:21:35;;;;;;;127.10;45.88;;;;;;;-3.56;100.00;93482.31;5029124;28;20493;-78
2022/01/28 09:24:02;;;;;;;110.80;41.35;;;;;;;-3.50;100.00;93479.34;5029296;28;20041;-78
2022/01/28 09:26:28;;;;;;;121.75;44.42;;;;;;;-3.39;100.00;93476.00;5029448;28;20049;-78
2022/01/28 09:28:55;;;;;;;101.63;42.30;;;;;;;-3.30;100.00;93477.00;5030011;28;20045;-78
2022/01/28 09:31:24;;;;;;;121.03;54.15;;;;;;;-3.19;100.00;93483.75;5029643;28;20075;-78
2022/01/28 09:33:50;;;;;;;113.32;45.28;;;;;;;-3.05;100.00;93482.66;5029124;28;20053;-78
2022/01/28 09:36:17;;;;;;;122.32;47.25;;;;;;;-2.85;100.00;93491.16;5028330;28;20045;-79
2022/01/28 09:38:44;;;;;;;119.18;57.35;;;;;;;-2.66;100.00;93489.69;5029888;28;20049;-78
2022/01/28 09:41:11;;;;;;;136.18;61.28;;;;;;;-2.51;100.00;93481.84;5028989;28;20045;-78
2022/01/28 09:43:38;;;;;;;193.77;64.88;;;;;;;-2.49;100.00;93492.56;5029768;28;20386;-78
2022/01/28 09:46:05;;;;;;;189.73;62.10;;;;;;;-2.47;100.00;93500.78;5029550;28;20057;-78
2022/01/28 09:48:33;;;;;;;144.48;51.72;;;;;;;-2.59;100.00;93507.59;5029365;28;20547;-78
2022/01/28 09:51:02;;;;;;;132.43;49.58;;;;;;;-2.44;100.00;93503.84;5029560;28;20049;-78
2022/01/28 09:53:29;;;;;;;126.05;49.70;;;;;;;-2.40;100.00;93486.81;5029514;28;20084;-78
2022/01/28 09:55:56;;;;;;;172.38;87.18;;;;;;;-2.30;100.00;93491.91;5029152;28;20048;-78
2022/01/28 09:58:23;;;;;;;141.25;60.30;;;;;;;-2.22;100.00;93479.47;5028771;28;20079;-78
2022/01/28 10:00:51;;;;;;;126.07;49.75;;;;;;;-2.14;100.00;93461.22;5028774;28;20052;-78
2022/01/28 10:03:19;;;;;;;125.97;47.00;;;;;;;-1.71;100.00;93479.53;5029056;28;20103;-78
2022/01/28 10:05:50;;;;;;;136.90;44.38;;;;;;;-1.84;100.00;93454.59;5028996;28;20516;-78
2022/01/28 10:08:19;;;;;;;125.63;42.72;;;;;;;-1.54;100.00;93505.03;5029121;28;20045;-78
2022/01/28 10:10:55;;;;;;;125.55;44.90;;;;;;;-1.43;100.00;93502.44;5029571;28;20049;-78
2022/01/28 10:13:27;;;;;;;120.78;45.33;;;;;;;-1.25;100.00;93496.78;5027269;28;20053;-78
2022/01/28 10:16:04;;;;;;;127.55;46.65;;;;;;;-1.30;100.00;93508.97;5028842;28;20136;-78
2022/01/28 10:18:49;;;;;;;112.88;49.13;;;;;;;-1.13;100.00;93510.84;5028959;28;20111;-78
2022/01/28 10:21:30;;;;;;;101.13;40.05;;;;;;;-1.12;100.00;93487.25;5029325;28;20045;-78
2022/01/28 10:24:09;;;;;;;86.03;34.13;;;;;;;-0.97;100.00;93517.13;5028828;28;20049;-78
2022/01/28 10:26:38;;;;;;;84.13;33.65;;;;;;;-1.22;100.00;93519.19;5028561;28;20489;-78
2022/01/28 10:29:07;;;;;;;86.47;29.52;;;;;;;-1.17;100.00;93511.25;5029241;28;20060;-78
2022/01/28 10:31:39;;;;;;;71.85;28.42;;;;;;;-0.95;100.00;93513.53;5028426;28;20042;-78
2022/01/28 10:34:18;;;;;;;73.70;25.80;;;;;;;-0.86;100.00;93501.88;5029115;28;20045;-78
2022/01/28 10:36:48;;;;;;;69.75;27.05;;;;;;;-1.15;100.00;93499.31;5029127;28;20053;-78
2022/01/28 10:39:17;;;;;;;76.85;27.50;;;;;;;-1.18;100.00;93507.94;5028726;28;20382;-78
2022/01/28 10:41:52;;;;;;;63.05;25.45;;;;;;;-1.21;100.00;93498.09;5028668;28;20053;-78
2022/01/28 10:44:20;;;;;;;74.80;30.03;;;;;;;-1.27;100.00;93484.31;5028484;28;20497;-77
2022/01/28 10:47:01;;;;;;;65.82;27.23;;;;;;;-1.22;100.00;93496.50;5028605;28;20493;-77
2022/01/28 10:49:31;;;;;;;58.33;24.13;;;;;;;-1.25;100.00;93474.88;5028809;28;20064;-77
2022/01/28 10:52:06;;;;;;;64.15;23.27;;;;;;;-1.03;100.00;93510.09;5029094;28;20061;-77
2022/01/28 10:54:33;;;;;;;65.10;27.45;;;;;;;-0.82;100.00;93500.66;5028493;28;20045;-77
2022/01/28 10:57:01;;;;;;;70.80;25.67;;;;;;;-0.65;100.00;93495.09;5028807;28;20147;-77
2022/01/28 10:59:30;;;;;;;74.45;35.63;;;;;;;-0.46;100.00;93491.75;5028717;28;20440;-77
2022/01/28 11:01:57;;;;;;;89.35;34.67;;;;;;;-0.32;100.00;93490.53;5028178;28;20056;-77
2022/01/28 11:04:25;;;;;;;98.07;41.42;;;;;;;-0.41;100.00;93464.38;5028697;28;20056;-78
2022/01/28 11:06:55;;;;;;;89.90;44.42;;;;;;;-0.10;99.85;93496.97;5028315;28;20527;-77
2022/01/28 11:09:24;;;;;;;99.18;42.03;;;;;;;0.04;99.62;93494.97;5029032;28;20045;-77
2022/01/28 11:11:51;;;;;;;122.13;47.72;;;;;;;0.18;98.14;93493.72;5032207;28;20049;-77
2022/01/28 11:14:20;;;;;;;93.28;42.00;;;;;;;0.19;97.65;93470.03;5032060;28;20497;-77
2022/01/28 11:16:47;;;;;;;90.57;33.67;;;;;;;0.43;97.65;93494.00;5031948;28;20080;-77
2022/01/28 11:19:17;;;;;;;70.20;29.98;;;;;;;0.52;95.98;93486.38;5030223;28;20037;-77
2022/01/28 11:22:09;;;;;;;89.70;40.05;;;;;;;0.61;96.36;93489.00;5032073;28;20056;-77
2022/01/28 11:25:03;;;;;;;76.35;32.80;;;;;;;0.63;94.25;93492.97;5032088;28;20448;-77
2022/01/28 11:27:32;;;;;;;104.47;39.58;;;;;;;0.64;94.54;93481.91;5031999;28;20096;-77
2022/01/28 11:30:16;;;;;;;89.88;41.13;;;;;;;0.72;94.32;93468.56;5032185;28;20099;-77
2022/01/28 11:32:59;;;;;;;118.43;51.78;;;;;;;0.80;95.60;93471.16;5031427;28;20053;-77
2022/01/28 11:35:28;;;;;;;103.95;45.47;;;;;;;0.92;93.24;93491.19;5031649;28;20041;-78
2022/01/28 11:38:01;;;;;;;95.75;41.03;;;;;;;0.78;93.05;93488.22;5031955;28;20041;-77
2022/01/28 11:40:43;;;;;;;105.03;43.13;;;;;;;0.70;93.27;93459.53;5031778;28;20820;-77
2022/01/28 11:43:21;;;;;;;98.30;43.20;;;;;;;1.01;94.89;93484.47;5031650;28;20137;-77
2022/01/28 11:45:48;;;;;;;143.02;65.22;;;;;;;1.07;94.91;93486.44;5028397;28;20825;-78
2022/01/28 11:48:15;;;;;;;248.40;92.68;;;;;;;1.17;94.59;93479.56;5029356;28;20057;-78
2022/01/28 11:50:52;;;;;;;137.18;56.10;;;;;;;1.20;94.69;93486.06;5031076;28;20532;-77
2022/01/28 11:53:24;;;;;;;130.40;58.63;;;;;;;1.14;95.58;93479.88;5031451;28;20083;-77
2022/01/28 11:56:13;;;;;;;126.95;59.90;;;;;;;1.11;96.72;93479.38;5030969;28;20136;-78
2022/01/28 11:58:57;;;;;;;130.70;59.65;;;;;;;1.11;95.92;93466.72;5026507;28;20049;-77
2022/01/28 12:01:25;;;;;;;135.20;60.05;;;;;;;1.25;96.87;93476.31;5030183;28;20412;-78
2022/01/28 12:04:32;;;;;;;135.40;61.05;;;;;;;1.41;96.17;93474.84;5030961;28;20046;-78
2022/01/28 12:07:01;;;;;;;125.80;60.58;;;;;;;1.46;94.61;93458.28;5030751;28;20049;-77
2022/01/28 12:09:29;;;;;;;119.45;54.95;;;;;;;1.54;94.06;93460.09;5031299;28;20053;-78
2022/01/28 12:11:59;;;;;;;130.20;58.88;;;;;;;1.45;94.75;93441.50;5031314;28;20057;-78